Metar z połowy godziny Komunikat METAR ze strony awiacja.imgw.pl Metar G00 EPLL METAR EPLL 271430Z 18003KT 120V230 8000 OVC005 00/M01 Q0996 =